Map

Track Data

SID SEASON NUMBER BASIN SUBBASIN NAME ISO_TIME NATURE LAT LON WMO_WIND WMO_PRES WMO_AGENCY TRACK_TYPE DIST2LAND LANDFALL IFLAG USA_AGENCY USA_ATCF_ID USA_LAT USA_LON USA_RECORD USA_STATUS USA_WIND USA_PRES USA_SSHS USA_R34_NE USA_R34_SE USA_R34_SW USA_R34_NW USA_R50_NE USA_R50_SE USA_R50_SW USA_R50_NW USA_R64_NE USA_R64_SE USA_R64_SW USA_R64_NW USA_POCI USA_ROCI USA_RMW USA_EYE TOKYO_LAT TOKYO_LON TOKYO_GRADE TOKYO_WIND TOKYO_PRES TOKYO_R50_DIR TOKYO_R50_LONG TOKYO_R50_SHORT TOKYO_R30_DIR TOKYO_R30_LONG TOKYO_R30_SHORT TOKYO_LAND CMA_LAT CMA_LON CMA_CAT CMA_WIND CMA_PRES HKO_LAT HKO_LON HKO_CAT HKO_WIND HKO_PRES NEWDELHI_LAT NEWDELHI_LON NEWDELHI_GRADE NEWDELHI_WIND NEWDELHI_PRES NEWDELHI_CI NEWDELHI_DP NEWDELHI_POCI REUNION_LAT REUNION_LON REUNION_TYPE REUNION_WIND REUNION_PRES REUNION_TNUM REUNION_CI REUNION_RMW REUNION_R34_NE REUNION_R34_SE REUNION_R34_SW REUNION_R34_NW REUNION_R50_NE REUNION_R50_SE REUNION_R50_SW REUNION_R50_NW REUNION_R64_NE REUNION_R64_SE REUNION_R64_SW REUNION_R64_NW BOM_LAT BOM_LON BOM_TYPE BOM_WIND BOM_PRES BOM_TNUM BOM_CI BOM_RMW BOM_R34_NE BOM_R34_SE BOM_R34_SW BOM_R34_NW BOM_R50_NE BOM_R50_SE BOM_R50_SW BOM_R50_NW BOM_R64_NE BOM_R64_SE BOM_R64_SW BOM_R64_NW BOM_ROCI BOM_POCI BOM_EYE BOM_POS_METHOD BOM_PRES_METHOD NADI_LAT NADI_LON NADI_CAT NADI_WIND NADI_PRES WELLINGTON_LAT WELLINGTON_LON WELLINGTON_WIND WELLINGTON_PRES DS824_LAT DS824_LON DS824_STAGE DS824_WIND DS824_PRES TD9636_LAT TD9636_LON TD9636_STAGE TD9636_WIND TD9636_PRES TD9635_LAT TD9635_LON TD9635_WIND TD9635_PRES TD9635_ROCI NEUMANN_LAT NEUMANN_LON NEUMANN_CLASS NEUMANN_WIND NEUMANN_PRES MLC_LAT MLC_LON MLC_CLASS MLC_WIND MLC_PRES USA_GUST BOM_GUST BOM_GUST_PER REUNION_GUST REUNION_GUST_PER USA_SEAHGT USA_SEARAD_NE USA_SEARAD_SE USA_SEARAD_SW USA_SEARAD_NW STORM_SPEED STORM_DIR
1942228N14147 1942 39 WP MM NOT_NAMED 1942-08-15 12:00:00 NR 14.0000 146.500 main 1803 1803 __________O___ -1 14.0000 146.500 4 5 270
1942228N14147 1942 39 WP MM NOT_NAMED 1942-08-15 15:00:00 NR 14.0012 146.252 main 1804 1804 __________P___ -1 14.0012 146.252 4 5 270
1942228N14147 1942 39 WP MM NOT_NAMED 1942-08-15 18:00:00 NR 14.0020 145.973 main 1804 1804 __________P___ -1 14.0020 145.973 4 6 270
1942228N14147 1942 39 WP MM NOT_NAMED 1942-08-15 21:00:00 NR 14.0018 145.632 main 1807 1807 __________P___ -1 14.0018 145.632 4 8 270
1942228N14147 1942 39 WP MM NOT_NAMED 1942-08-16 00:00:00 NR 14.0000 145.200 main 1810 1810 __________O___ -1 14.0000 145.200 4 9 270
1942228N14147 1942 39 WP MM NOT_NAMED 1942-08-16 03:00:00 NR 13.9964 144.657 main 1815 1815 __________P___ -1 13.9964 144.657 4 11 270
1942228N14147 1942 39 WP MM NOT_NAMED 1942-08-16 06:00:00 NR 13.9931 144.032 main 1826 1826 __________P___ -1 13.9931 144.032 4 13 270
1942228N14147 1942 39 WP MM NOT_NAMED 1942-08-16 09:00:00 NR 13.9932 143.366 main 1837 1816 __________P___ -1 13.9932 143.366 4 13 270
1942228N14147 1942 39 WP MM NOT_NAMED 1942-08-16 12:00:00 NR 14.0000 142.700 main 1816 1793 __________O___ -1 14.0000 142.700 4 12 271
1942228N14147 1942 39 WP MM NOT_NAMED 1942-08-16 15:00:00 NR 14.0134 142.085 main 1793 1737 __________P___ -1 14.0134 142.085 4 12 272
1942228N14147 1942 39 WP MM NOT_NAMED 1942-08-16 18:00:00 NR 14.0345 141.478 main 1737 1675 __________P___ -1 14.0345 141.478 4 12 272
1942228N14147 1942 39 WP MM NOT_NAMED 1942-08-16 21:00:00 NR 14.0634 140.882 main 1675 1612 __________P___ -1 14.0634 140.882 4 11 273
1942228N14147 1942 39 WP MM NOT_NAMED 1942-08-17 00:00:00 NR 14.1000 140.300 main 1612 1559 __________O___ -1 14.1000 140.300 4 11 274
1942228N14147 1942 39 WP MM NOT_NAMED 1942-08-17 03:00:00 NR 14.1343 139.727 main 1548 1498 __________P___ -1 14.1343 139.727 4 11 274
1942228N14147 1942 39 WP MM NOT_NAMED 1942-08-17 06:00:00 NR 14.1770 139.170 main 1498 1445 __________P___ -1 14.1770 139.170 4 11 275
1942228N14147 1942 39 WP MM NOT_NAMED 1942-08-17 09:00:00 NR 14.2312 138.627 main 1435 1384 __________P___ -1 14.2312 138.627 4 10 277
1942228N14147 1942 39 WP MM NOT_NAMED 1942-08-17 12:00:00 NR 14.3000 138.100 main 1384 1332 __________O___ -1 14.3000 138.100 4 10 278
1942228N14147 1942 39 WP MM NOT_NAMED 1942-08-17 15:00:00 NR 14.3728 137.598 main 1332 1281 __________P___ -1 14.3728 137.598 4 10 280
1942228N14147 1942 39 WP MM NOT_NAMED 1942-08-17 18:00:00 NR 14.4616 137.107 main 1281 1230 __________P___ -1 14.4616 137.107 4 10 282
1942228N14147 1942 39 WP MM NOT_NAMED 1942-08-17 21:00:00 NR 14.5696 136.613 main 1230 1180 __________P___ -1 14.5696 136.613 4 10 284
1942228N14147 1942 39 WP MM NOT_NAMED 1942-08-18 00:00:00 NR 14.7000 136.100 main 1180 1130 __________O___ -1 14.7000 136.100 4 11 286
1942228N14147 1942 39 WP MM NOT_NAMED 1942-08-18 03:00:00 NR 14.8654 135.551 main 1133 1073 __________P___ -1 14.8654 135.551 4 11 288
1942228N14147 1942 39 WP MM NOT_NAMED 1942-08-18 06:00:00 NR 15.0496 134.980 main 1073 1018 __________P___ -1 15.0496 134.980 4 12 288
1942228N14147 1942 39 WP MM NOT_NAMED 1942-08-18 09:00:00 NR 15.2341 134.395 main 1018 965 __________P___ -1 15.2341 134.395 4 12 287
1942228N14147 1942 39 WP MM NOT_NAMED 1942-08-18 12:00:00 NR 15.4000 133.800 main 965 909 __________O___ -1 15.4000 133.800 4 12 285
1942228N14147 1942 39 WP MM NOT_NAMED 1942-08-18 15:00:00 NR 15.5335 133.202 main 909 855 __________P___ -1 15.5335 133.202 4 12 282
1942228N14147 1942 39 WP MM NOT_NAMED 1942-08-18 18:00:00 NR 15.6387 132.603 main 855 803 __________P___ -1 15.6387 132.603 4 12 279
1942228N14147 1942 39 WP MM NOT_NAMED 1942-08-18 21:00:00 NR 15.7246 132.002 main 803 753 __________P___ -1 15.7246 132.002 4 12 278
1942228N14147 1942 39 WP MM NOT_NAMED 1942-08-19 00:00:00 NR 15.8000 131.400 main 753 __________O___ -1 15.8000 131.400 7 12 277

Digital Typhoon Data and Search

About IBTrACS Database

This database is a web-friendly format of International Best Track Archive for Climate Stewardship (IBTrACS), a global best track data archive curated by NOAA dating back to 1842.

Updated: 2021-10-19